sensor_id;sensor_type;location;lat;lon;timestamp;P1;durP1;ratioP1;P2;durP2;ratioP2
53453;SDS011;49404;50.472;6.954;2024-03-02T07:32:39;1.55;;;1.55;;
53453;SDS011;49404;50.472;6.954;2024-03-02T07:35:07;1.67;;;1.67;;
53453;SDS011;49404;50.472;6.954;2024-03-02T07:37:33;2.20;;;2.10;;
53453;SDS011;49404;50.472;6.954;2024-03-02T07:39:59;2.35;;;2.25;;
53453;SDS011;49404;50.472;6.954;2024-03-02T07:42:25;2.60;;;2.50;;
53453;SDS011;49404;50.472;6.954;2024-03-02T07:44:52;4.20;;;3.90;;
53453;SDS011;49404;50.472;6.954;2024-03-02T07:47:18;4.30;;;4.10;;
53453;SDS011;49404;50.472;6.954;2024-03-02T07:49:44;4.57;;;4.38;;
53453;SDS011;49404;50.472;6.954;2024-03-02T07:52:11;4.28;;;4.07;;
53453;SDS011;49404;50.472;6.954;2024-03-02T07:54:37;4.75;;;4.47;;
53453;SDS011;49404;50.472;6.954;2024-03-02T07:57:03;4.68;;;4.40;;
53453;SDS011;49404;50.472;6.954;2024-03-02T07:59:29;4.68;;;4.47;;
53453;SDS011;49404;50.472;6.954;2024-03-02T08:01:55;4.28;;;3.97;;
53453;SDS011;49404;50.472;6.954;2024-03-02T08:04:21;2.20;;;2.10;;
53453;SDS011;49404;50.472;6.954;2024-03-02T08:06:48;2.10;;;2.00;;
53453;SDS011;49404;50.472;6.954;2024-03-02T08:09:14;2.42;;;2.22;;
53453;SDS011;49404;50.472;6.954;2024-03-02T08:11:40;2.13;;;2.03;;
53453;SDS011;49404;50.472;6.954;2024-03-02T08:14:06;2.13;;;2.03;;
53453;SDS011;49404;50.472;6.954;2024-03-02T08:16:32;2.20;;;2.10;;
53453;SDS011;49404;50.472;6.954;2024-03-02T08:18:58;2.20;;;2.10;;
53453;SDS011;49404;50.472;6.954;2024-03-02T08:21:24;2.10;;;2.00;;
53453;SDS011;49404;50.472;6.954;2024-03-02T08:23:51;2.10;;;2.00;;
53453;SDS011;49404;50.472;6.954;2024-03-02T08:26:17;2.20;;;2.03;;
53453;SDS011;49404;50.472;6.954;2024-03-02T08:28:43;2.10;;;2.00;;
53453;SDS011;49404;50.472;6.954;2024-03-02T08:31:09;2.10;;;2.00;;
53453;SDS011;49404;50.472;6.954;2024-03-02T08:33:35;4.13;;;3.83;;
53453;SDS011;49404;50.472;6.954;2024-03-02T08:36:01;4.30;;;4.00;;
53453;SDS011;49404;50.472;6.954;2024-03-02T08:38:27;4.20;;;4.00;;
53453;SDS011;49404;50.472;6.954;2024-03-02T08:40:54;4.20;;;4.00;;
53453;SDS011;49404;50.472;6.954;2024-03-02T08:43:20;4.45;;;4.15;;
53453;SDS011;49404;50.472;6.954;2024-03-02T08:45:47;4.60;;;4.30;;
53453;SDS011;49404;50.472;6.954;2024-03-02T08:48:14;4.55;;;4.35;;
53453;SDS011;49404;50.472;6.954;2024-03-02T08:50:40;4.75;;;4.47;;
53453;SDS011;49404;50.472;6.954;2024-03-02T08:53:06;4.70;;;4.50;;
53453;SDS011;49404;50.472;6.954;2024-03-02T08:55:32;4.80;;;4.60;;
53453;SDS011;49404;50.472;6.954;2024-03-02T08:57:58;5.00;;;4.70;;
53453;SDS011;49404;50.472;6.954;2024-03-02T09:00:24;4.90;;;4.70;;
53453;SDS011;49404;50.472;6.954;2024-03-02T09:02:50;4.70;;;4.50;;
53453;SDS011;49404;50.472;6.954;2024-03-02T09:05:16;4.50;;;4.20;;
53453;SDS011;49404;50.472;6.954;2024-03-02T09:07:42;4.57;;;3.30;;
53453;SDS011;49404;50.472;6.954;2024-03-02T09:10:08;2.40;;;2.30;;
53453;SDS011;49404;50.472;6.954;2024-03-02T09:12:34;2.10;;;2.00;;
53453;SDS011;49404;50.472;6.954;2024-03-02T09:15:01;2.20;;;2.10;;
53453;SDS011;49404;50.472;6.954;2024-03-02T09:17:28;2.35;;;2.25;;
53453;SDS011;49404;50.472;6.954;2024-03-02T09:19:54;2.20;;;2.10;;
53453;SDS011;49404;50.472;6.954;2024-03-02T09:22:21;2.30;;;2.20;;
53453;SDS011;49404;50.472;6.954;2024-03-02T09:24:47;5.97;;;3.10;;
53453;SDS011;49404;50.472;6.954;2024-03-02T09:27:13;2.25;;;2.10;;
53453;SDS011;49404;50.472;6.954;2024-03-02T09:29:39;2.10;;;2.00;;
53453;SDS011;49404;50.472;6.954;2024-03-02T09:32:05;2.20;;;2.00;;
53453;SDS011;49404;50.472;6.954;2024-03-02T09:34:31;4.97;;;1.98;;
53453;SDS011;49404;50.472;6.954;2024-03-02T09:36:57;2.60;;;2.00;;
53453;SDS011;49404;50.472;6.954;2024-03-02T09:39:24;2.08;;;1.98;;
53453;SDS011;49404;50.472;6.954;2024-03-02T09:41:50;2.10;;;2.00;;
53453;SDS011;49404;50.472;6.954;2024-03-02T09:44:16;2.00;;;1.90;;
53453;SDS011;49404;50.472;6.954;2024-03-02T09:46:43;2.30;;;2.20;;
53453;SDS011;49404;50.472;6.954;2024-03-02T09:49:12;2.17;;;2.08;;
53453;SDS011;49404;50.472;6.954;2024-03-02T12:10:56;8.87;;;8.40;;
53453;SDS011;49404;50.472;6.954;2024-03-02T12:52:19;16.20;;;8.40;;
53453;SDS011;49404;50.472;6.954;2024-03-02T13:19:09;12.10;;;11.40;;
53453;SDS011;49404;50.472;6.954;2024-03-02T13:38:37;11.27;;;10.57;;
53453;SDS011;49404;50.472;6.954;2024-03-02T13:43:29;11.90;;;11.20;;
53453;SDS011;49404;50.472;6.954;2024-03-02T13:46:00;11.80;;;11.10;;
53453;SDS011;49404;50.472;6.954;2024-03-02T13:48:26;12.07;;;11.38;;
53453;SDS011;49404;50.472;6.954;2024-03-02T13:50:52;11.85;;;11.15;;
53453;SDS011;49404;50.472;6.954;2024-03-02T13:55:44;10.35;;;9.65;;
53453;SDS011;49404;50.472;6.954;2024-03-02T13:58:10;12.10;;;11.40;;
53453;SDS011;49404;50.472;6.954;2024-03-02T14:00:36;12.25;;;11.55;;
53453;SDS011;49404;50.472;6.954;2024-03-02T14:03:03;12.45;;;11.65;;
53453;SDS011;49404;50.472;6.954;2024-03-02T14:05:30;11.93;;;11.32;;
53453;SDS011;49404;50.472;6.954;2024-03-02T14:07:56;12.35;;;11.45;;
53453;SDS011;49404;50.472;6.954;2024-03-02T14:10:22;12.60;;;11.70;;
53453;SDS011;49404;50.472;6.954;2024-03-02T14:12:48;12.10;;;11.50;;
53453;SDS011;49404;50.472;6.954;2024-03-02T14:15:14;12.07;;;11.38;;
53453;SDS011;49404;50.472;6.954;2024-03-02T14:17:40;11.63;;;11.02;;
53453;SDS011;49404;50.472;6.954;2024-03-02T14:20:07;8.00;;;7.47;;
53453;SDS011;49404;50.472;6.954;2024-03-02T14:22:36;7.93;;;7.43;;
53453;SDS011;49404;50.472;6.954;2024-03-02T14:25:03;7.90;;;7.40;;
53453;SDS011;49404;50.472;6.954;2024-03-02T14:27:29;7.85;;;7.30;;
53453;SDS011;49404;50.472;6.954;2024-03-02T14:29:55;11.90;;;11.20;;
53453;SDS011;49404;50.472;6.954;2024-03-02T14:32:21;12.80;;;12.05;;
53453;SDS011;49404;50.472;6.954;2024-03-02T14:34:47;12.48;;;11.77;;
53453;SDS011;49404;50.472;6.954;2024-03-02T14:37:14;13.50;;;12.75;;
53453;SDS011;49404;50.472;6.954;2024-03-02T14:39:40;11.48;;;10.68;;
53453;SDS011;49404;50.472;6.954;2024-03-02T18:41:22;12.10;;;11.05;;
53453;SDS011;49404;50.472;6.954;2024-03-02T18:43:48;12.93;;;12.23;;
53453;SDS011;49404;50.472;6.954;2024-03-02T18:46:14;13.13;;;12.43;;
53453;SDS011;49404;50.472;6.954;2024-03-02T18:48:40;13.02;;;12.32;;
53453;SDS011;49404;50.472;6.954;2024-03-02T18:51:06;13.25;;;12.55;;
53453;SDS011;49404;50.472;6.954;2024-03-02T18:53:34;13.57;;;12.85;;
53453;SDS011;49404;50.472;6.954;2024-03-02T18:56:00;13.15;;;12.35;;
53453;SDS011;49404;50.472;6.954;2024-03-02T18:58:26;13.30;;;12.53;;
53453;SDS011;49404;50.472;6.954;2024-03-02T19:00:52;13.40;;;12.40;;
53453;SDS011;49404;50.472;6.954;2024-03-02T19:03:18;13.18;;;12.40;;
53453;SDS011;49404;50.472;6.954;2024-03-02T19:05:44;13.50;;;12.80;;
53453;SDS011;49404;50.472;6.954;2024-03-02T19:08:10;13.50;;;12.80;;
53453;SDS011;49404;50.472;6.954;2024-03-02T19:10:39;13.40;;;12.70;;
53453;SDS011;49404;50.472;6.954;2024-03-02T19:13:05;13.07;;;12.37;;
53453;SDS011;49404;50.472;6.954;2024-03-02T19:15:31;13.27;;;12.57;;
53453;SDS011;49404;50.472;6.954;2024-03-02T19:17:57;13.30;;;12.60;;
53453;SDS011;49404;50.472;6.954;2024-03-02T19:20:23;13.13;;;12.32;;
53453;SDS011;49404;50.472;6.954;2024-03-02T19:22:49;12.65;;;11.95;;
53453;SDS011;49404;50.472;6.954;2024-03-02T19:25:15;9.77;;;7.80;;
53453;SDS011;49404;50.472;6.954;2024-03-02T19:27:41;8.38;;;7.82;;
53453;SDS011;49404;50.472;6.954;2024-03-02T19:30:07;7.75;;;7.25;;
53453;SDS011;49404;50.472;6.954;2024-03-02T19:32:33;9.90;;;9.00;;
53453;SDS011;49404;50.472;6.954;2024-03-02T19:34:59;10.52;;;9.52;;
53453;SDS011;49404;50.472;6.954;2024-03-02T19:37:25;11.65;;;10.48;;
53453;SDS011;49404;50.472;6.954;2024-03-02T19:39:52;17.88;;;9.75;;
53453;SDS011;49404;50.472;6.954;2024-03-02T19:42:17;10.48;;;9.57;;
53453;SDS011;49404;50.472;6.954;2024-03-02T19:44:43;10.48;;;9.57;;
53453;SDS011;49404;50.472;6.954;2024-03-02T19:47:09;9.80;;;8.90;;
53453;SDS011;49404;50.472;6.954;2024-03-02T19:49:36;15.13;;;10.40;;
53453;SDS011;49404;50.472;6.954;2024-03-02T19:52:02;10.27;;;9.23;;
53453;SDS011;49404;50.472;6.954;2024-03-02T19:54:28;10.32;;;9.35;;
53453;SDS011;49404;50.472;6.954;2024-03-02T19:56:54;10.27;;;9.27;;
53453;SDS011;49404;50.472;6.954;2024-03-02T19:59:20;10.10;;;9.20;;
53453;SDS011;49404;50.472;6.954;2024-03-02T20:01:46;9.82;;;8.93;;
53453;SDS011;49404;50.472;6.954;2024-03-02T20:04:12;10.18;;;9.18;;
53453;SDS011;49404;50.472;6.954;2024-03-02T20:06:38;9.52;;;8.73;;
53453;SDS011;49404;50.472;6.954;2024-03-02T20:09:04;9.40;;;8.57;;
53453;SDS011;49404;50.472;6.954;2024-03-02T20:11:31;9.70;;;8.80;;
53453;SDS011;49404;50.472;6.954;2024-03-02T20:13:57;10.00;;;9.10;;
53453;SDS011;49404;50.472;6.954;2024-03-02T20:16:23;9.18;;;8.38;;
53453;SDS011;49404;50.472;6.954;2024-03-02T20:18:49;9.02;;;8.23;;
53453;SDS011;49404;50.472;6.954;2024-03-02T20:21:15;9.60;;;8.80;;
53453;SDS011;49404;50.472;6.954;2024-03-02T20:23:41;9.30;;;8.50;;
53453;SDS011;49404;50.472;6.954;2024-03-02T20:26:07;9.57;;;8.85;;
53453;SDS011;49404;50.472;6.954;2024-03-02T20:28:33;9.20;;;8.48;;
53453;SDS011;49404;50.472;6.954;2024-03-02T20:30:59;8.90;;;8.20;;
53453;SDS011;49404;50.472;6.954;2024-03-02T20:33:25;9.07;;;8.27;;
53453;SDS011;49404;50.472;6.954;2024-03-02T20:35:51;8.85;;;8.20;;
53453;SDS011;49404;50.472;6.954;2024-03-02T20:38:17;9.18;;;8.50;;
53453;SDS011;49404;50.472;6.954;2024-03-02T20:40:43;8.77;;;8.07;;
53453;SDS011;49404;50.472;6.954;2024-03-02T20:43:11;8.65;;;7.95;;
53453;SDS011;49404;50.472;6.954;2024-03-02T20:45:38;9.00;;;8.20;;
53453;SDS011;49404;50.472;6.954;2024-03-02T20:48:04;8.48;;;7.78;;
53453;SDS011;49404;50.472;6.954;2024-03-02T20:50:30;8.73;;;8.02;;
53453;SDS011;49404;50.472;6.954;2024-03-02T20:52:56;8.55;;;7.95;;
53453;SDS011;49404;50.472;6.954;2024-03-02T20:55:25;8.82;;;8.13;;
53453;SDS011;49404;50.472;6.954;2024-03-02T20:57:51;9.20;;;8.50;;
53453;SDS011;49404;50.472;6.954;2024-03-02T21:00:17;8.48;;;7.88;;
53453;SDS011;49404;50.472;6.954;2024-03-02T21:02:44;8.23;;;7.63;;
53453;SDS011;49404;50.472;6.954;2024-03-02T21:05:10;8.73;;;8.13;;
53453;SDS011;49404;50.472;6.954;2024-03-02T21:07:37;12.18;;;8.18;;
53453;SDS011;49404;50.472;6.954;2024-03-02T21:10:03;8.18;;;7.60;;
53453;SDS011;49404;50.472;6.954;2024-03-02T21:12:30;8.65;;;7.97;;
53453;SDS011;49404;50.472;6.954;2024-03-02T21:14:56;8.40;;;7.80;;
53453;SDS011;49404;50.472;6.954;2024-03-02T21:17:22;8.40;;;7.80;;
53453;SDS011;49404;50.472;6.954;2024-03-02T21:19:48;8.25;;;7.68;;
53453;SDS011;49404;50.472;6.954;2024-03-02T21:22:15;8.20;;;7.50;;
53453;SDS011;49404;50.472;6.954;2024-03-02T21:24:40;8.10;;;7.50;;
53453;SDS011;49404;50.472;6.954;2024-03-02T21:27:10;8.02;;;7.53;;
53453;SDS011;49404;50.472;6.954;2024-03-02T21:29:37;8.48;;;7.88;;
53453;SDS011;49404;50.472;6.954;2024-03-02T21:32:03;8.13;;;7.53;;
53453;SDS011;49404;50.472;6.954;2024-03-02T21:34:30;8.38;;;7.88;;
53453;SDS011;49404;50.472;6.954;2024-03-02T21:36:56;8.73;;;7.80;;
53453;SDS011;49404;50.472;6.954;2024-03-02T21:39:23;8.20;;;7.70;;
53453;SDS011;49404;50.472;6.954;2024-03-02T21:41:48;8.05;;;7.55;;
53453;SDS011;49404;50.472;6.954;2024-03-02T21:44:16;8.70;;;8.10;;
53453;SDS011;49404;50.472;6.954;2024-03-02T21:46:42;8.48;;;7.88;;
53453;SDS011;49404;50.472;6.954;2024-03-02T21:49:08;8.27;;;7.68;;
53453;SDS011;49404;50.472;6.954;2024-03-02T21:51:34;8.10;;;7.60;;
53453;SDS011;49404;50.472;6.954;2024-03-02T21:54:00;7.82;;;7.32;;
53453;SDS011;49404;50.472;6.954;2024-03-02T21:56:26;8.10;;;7.40;;
53453;SDS011;49404;50.472;6.954;2024-03-02T21:58:52;8.10;;;7.60;;
53453;SDS011;49404;50.472;6.954;2024-03-02T22:01:18;8.43;;;7.82;;
53453;SDS011;49404;50.472;6.954;2024-03-02T22:03:44;8.50;;;8.00;;
53453;SDS011;49404;50.472;6.954;2024-03-02T22:06:11;7.93;;;7.43;;
53453;SDS011;49404;50.472;6.954;2024-03-02T22:08:37;8.25;;;7.65;;
53453;SDS011;49404;50.472;6.954;2024-03-02T22:11:03;7.70;;;7.20;;
53453;SDS011;49404;50.472;6.954;2024-03-02T22:13:29;8.02;;;7.53;;
53453;SDS011;49404;50.472;6.954;2024-03-02T22:15:55;7.97;;;7.40;;
53453;SDS011;49404;50.472;6.954;2024-03-02T22:18:21;8.07;;;7.50;;
53453;SDS011;49404;50.472;6.954;2024-03-02T22:20:47;8.10;;;7.60;;
53453;SDS011;49404;50.472;6.954;2024-03-02T22:23:13;8.02;;;7.47;;
53453;SDS011;49404;50.472;6.954;2024-03-02T22:25:39;7.85;;;7.35;;
53453;SDS011;49404;50.472;6.954;2024-03-02T22:28:06;8.05;;;7.32;;
53453;SDS011;49404;50.472;6.954;2024-03-02T22:30:32;8.27;;;7.78;;
53453;SDS011;49404;50.472;6.954;2024-03-02T22:32:58;7.80;;;7.30;;
53453;SDS011;49404;50.472;6.954;2024-03-02T22:35:24;7.78;;;7.28;;
53453;SDS011;49404;50.472;6.954;2024-03-02T22:37:50;7.65;;;7.15;;
53453;SDS011;49404;50.472;6.954;2024-03-02T22:40:16;8.10;;;7.57;;
53453;SDS011;49404;50.472;6.954;2024-03-02T22:42:42;7.95;;;7.35;;
53453;SDS011;49404;50.472;6.954;2024-03-02T22:45:09;8.00;;;7.50;;
53453;SDS011;49404;50.472;6.954;2024-03-02T22:47:35;7.70;;;7.20;;
53453;SDS011;49404;50.472;6.954;2024-03-02T22:50:01;7.78;;;7.28;;
53453;SDS011;49404;50.472;6.954;2024-03-02T22:52:26;7.95;;;7.45;;
53453;SDS011;49404;50.472;6.954;2024-03-02T22:54:53;7.95;;;7.35;;
53453;SDS011;49404;50.472;6.954;2024-03-02T22:57:18;7.88;;;7.38;;
53453;SDS011;49404;50.472;6.954;2024-03-02T22:59:48;7.95;;;7.45;;
53453;SDS011;49404;50.472;6.954;2024-03-02T23:02:15;7.80;;;7.30;;
53453;SDS011;49404;50.472;6.954;2024-03-02T23:04:45;7.95;;;7.45;;
53453;SDS011;49404;50.472;6.954;2024-03-02T23:07:11;7.93;;;7.43;;
53453;SDS011;49404;50.472;6.954;2024-03-02T23:09:37;7.70;;;7.20;;
53453;SDS011;49404;50.472;6.954;2024-03-02T23:12:03;7.70;;;7.20;;
53453;SDS011;49404;50.472;6.954;2024-03-02T23:14:29;7.82;;;7.22;;
53453;SDS011;49404;50.472;6.954;2024-03-02T23:16:55;8.02;;;7.53;;
53453;SDS011;49404;50.472;6.954;2024-03-02T23:19:21;7.68;;;7.18;;
53453;SDS011;49404;50.472;6.954;2024-03-02T23:21:48;7.68;;;7.18;;
53453;SDS011;49404;50.472;6.954;2024-03-02T23:24:14;7.70;;;7.20;;
53453;SDS011;49404;50.472;6.954;2024-03-02T23:26:40;7.85;;;7.35;;
53453;SDS011;49404;50.472;6.954;2024-03-02T23:29:07;7.75;;;7.25;;
53453;SDS011;49404;50.472;6.954;2024-03-02T23:31:33;7.63;;;7.13;;
53453;SDS011;49404;50.472;6.954;2024-03-02T23:33:59;7.60;;;7.10;;
53453;SDS011;49404;50.472;6.954;2024-03-02T23:36:29;7.93;;;7.43;;
53453;SDS011;49404;50.472;6.954;2024-03-02T23:38:56;7.70;;;7.10;;
53453;SDS011;49404;50.472;6.954;2024-03-02T23:41:25;7.90;;;7.40;;
53453;SDS011;49404;50.472;6.954;2024-03-02T23:43:51;7.80;;;7.30;;
53453;SDS011;49404;50.472;6.954;2024-03-02T23:46:17;7.65;;;7.15;;
53453;SDS011;49404;50.472;6.954;2024-03-02T23:48:43;7.78;;;7.28;;
53453;SDS011;49404;50.472;6.954;2024-03-02T23:51:09;7.60;;;7.10;;
53453;SDS011;49404;50.472;6.954;2024-03-02T23:53:35;7.80;;;7.30;;
53453;SDS011;49404;50.472;6.954;2024-03-02T23:56:08;7.68;;;7.18;;
53453;SDS011;49404;50.472;6.954;2024-03-02T23:58:34;7.50;;;7.00;;
